Terminal Aerodrome Forecast
Issued by NWS

Home | Current Version | Previous Version | Text Only | Print | Product List | Glossary On
Versions: 1 2 3 4 5 6 7 8 9 10 11 12 13 14 15 16 17 18 19 20 21
000
FTUS43 KICT 082322
TAFRSL
TAF
KRSL 082322Z 0900/0924 30006KT P6SM SKC
     FM091100 14004KT P6SM SCT100
     FM091400 15009KT P6SM BKN100
     FM091700 17013G21KT P6SM SCT110
     FM092300 16007KT P6SM FEW080=

USA.gov is the U.S. government's official web portal to all federal, state and local government web resources and services.